sensor_id;sensor_type;location;lat;lon;timestamp;P1;durP1;ratioP1;P2;durP2;ratioP2
21315;SDS011;10817;55.820;13.030;2023-05-17T00:02:06;24.08;;;3.75;;
21315;SDS011;10817;55.820;13.030;2023-05-17T00:04:33;25.98;;;5.18;;
21315;SDS011;10817;55.820;13.030;2023-05-17T00:07:00;25.08;;;4.32;;
21315;SDS011;10817;55.820;13.030;2023-05-17T00:09:27;23.83;;;3.72;;
21315;SDS011;10817;55.820;13.030;2023-05-17T00:11:54;29.40;;;4.45;;
21315;SDS011;10817;55.820;13.030;2023-05-17T00:14:22;23.90;;;4.75;;
21315;SDS011;10817;55.820;13.030;2023-05-17T00:16:50;23.05;;;3.97;;
21315;SDS011;10817;55.820;13.030;2023-05-17T00:19:17;22.75;;;4.25;;
21315;SDS011;10817;55.820;13.030;2023-05-17T00:21:44;22.95;;;4.22;;
21315;SDS011;10817;55.820;13.030;2023-05-17T00:24:11;32.72;;;4.60;;
21315;SDS011;10817;55.820;13.030;2023-05-17T00:26:39;21.40;;;4.22;;
21315;SDS011;10817;55.820;13.030;2023-05-17T00:29:06;29.20;;;4.95;;
21315;SDS011;10817;55.820;13.030;2023-05-17T00:31:34;25.05;;;4.43;;
21315;SDS011;10817;55.820;13.030;2023-05-17T00:34:04;20.40;;;4.13;;
21315;SDS011;10817;55.820;13.030;2023-05-17T00:36:32;19.48;;;3.70;;
21315;SDS011;10817;55.820;13.030;2023-05-17T00:39:00;21.10;;;3.70;;
21315;SDS011;10817;55.820;13.030;2023-05-17T00:41:27;22.58;;;3.55;;
21315;SDS011;10817;55.820;13.030;2023-05-17T00:43:54;27.35;;;4.95;;
21315;SDS011;10817;55.820;13.030;2023-05-17T00:46:21;21.30;;;3.30;;
21315;SDS011;10817;55.820;13.030;2023-05-17T00:48:49;20.58;;;4.38;;
21315;SDS011;10817;55.820;13.030;2023-05-17T00:51:17;16.85;;;3.17;;
21315;SDS011;10817;55.820;13.030;2023-05-17T00:53:45;17.77;;;3.53;;
21315;SDS011;10817;55.820;13.030;2023-05-17T00:56:12;23.38;;;4.18;;
21315;SDS011;10817;55.820;13.030;2023-05-17T00:58:40;18.60;;;3.80;;
21315;SDS011;10817;55.820;13.030;2023-05-17T01:01:07;24.17;;;4.20;;
21315;SDS011;10817;55.820;13.030;2023-05-17T01:03:34;17.55;;;3.17;;
21315;SDS011;10817;55.820;13.030;2023-05-17T01:06:02;27.42;;;3.83;;
21315;SDS011;10817;55.820;13.030;2023-05-17T01:08:34;25.55;;;4.45;;
21315;SDS011;10817;55.820;13.030;2023-05-17T01:11:04;23.58;;;4.05;;
21315;SDS011;10817;55.820;13.030;2023-05-17T01:13:36;26.30;;;3.78;;
21315;SDS011;10817;55.820;13.030;2023-05-17T01:16:08;19.98;;;3.10;;
21315;SDS011;10817;55.820;13.030;2023-05-17T01:18:38;19.05;;;3.78;;
21315;SDS011;10817;55.820;13.030;2023-05-17T01:21:20;24.88;;;4.00;;
21315;SDS011;10817;55.820;13.030;2023-05-17T01:24:01;27.85;;;3.97;;
21315;SDS011;10817;55.820;13.030;2023-05-17T01:26:35;23.67;;;3.70;;
21315;SDS011;10817;55.820;13.030;2023-05-17T01:29:02;20.98;;;4.30;;
21315;SDS011;10817;55.820;13.030;2023-05-17T01:31:31;19.20;;;4.00;;
21315;SDS011;10817;55.820;13.030;2023-05-17T01:33:58;17.02;;;3.92;;
21315;SDS011;10817;55.820;13.030;2023-05-17T01:36:26;15.45;;;3.10;;
21315;SDS011;10817;55.820;13.030;2023-05-17T01:38:53;20.00;;;3.88;;
21315;SDS011;10817;55.820;13.030;2023-05-17T01:41:22;23.42;;;3.22;;
21315;SDS011;10817;55.820;13.030;2023-05-17T01:43:56;24.45;;;3.97;;
21315;SDS011;10817;55.820;13.030;2023-05-17T01:46:27;27.08;;;4.22;;
21315;SDS011;10817;55.820;13.030;2023-05-17T01:48:59;18.08;;;3.30;;
21315;SDS011;10817;55.820;13.030;2023-05-17T01:51:28;23.13;;;3.42;;
21315;SDS011;10817;55.820;13.030;2023-05-17T01:53:56;19.90;;;3.33;;
21315;SDS011;10817;55.820;13.030;2023-05-17T01:56:31;20.50;;;3.72;;
21315;SDS011;10817;55.820;13.030;2023-05-17T01:59:00;34.53;;;4.40;;
21315;SDS011;10817;55.820;13.030;2023-05-17T02:01:28;29.15;;;4.47;;
21315;SDS011;10817;55.820;13.030;2023-05-17T02:03:56;17.45;;;3.22;;
21315;SDS011;10817;55.820;13.030;2023-05-17T02:06:24;22.30;;;3.53;;
21315;SDS011;10817;55.820;13.030;2023-05-17T02:08:51;17.88;;;3.08;;
21315;SDS011;10817;55.820;13.030;2023-05-17T02:11:18;30.92;;;4.28;;
21315;SDS011;10817;55.820;13.030;2023-05-17T02:13:46;18.33;;;3.38;;
21315;SDS011;10817;55.820;13.030;2023-05-17T02:16:14;18.52;;;2.65;;
21315;SDS011;10817;55.820;13.030;2023-05-17T02:18:41;20.23;;;3.80;;
21315;SDS011;10817;55.820;13.030;2023-05-17T02:21:09;25.23;;;3.67;;
21315;SDS011;10817;55.820;13.030;2023-05-17T02:23:37;28.60;;;4.25;;
21315;SDS011;10817;55.820;13.030;2023-05-17T02:26:04;21.70;;;3.08;;
21315;SDS011;10817;55.820;13.030;2023-05-17T02:28:32;23.23;;;3.53;;
21315;SDS011;10817;55.820;13.030;2023-05-17T02:31:01;22.08;;;3.95;;
21315;SDS011;10817;55.820;13.030;2023-05-17T02:33:30;18.85;;;3.65;;
21315;SDS011;10817;55.820;13.030;2023-05-17T02:35:57;16.85;;;3.15;;
21315;SDS011;10817;55.820;13.030;2023-05-17T02:38:25;21.02;;;3.20;;
21315;SDS011;10817;55.820;13.030;2023-05-17T02:40:52;27.17;;;4.13;;
21315;SDS011;10817;55.820;13.030;2023-05-17T02:43:19;22.75;;;3.33;;
21315;SDS011;10817;55.820;13.030;2023-05-17T02:45:46;16.38;;;3.45;;
21315;SDS011;10817;55.820;13.030;2023-05-17T02:48:14;21.08;;;3.15;;
21315;SDS011;10817;55.820;13.030;2023-05-17T02:50:42;17.58;;;4.03;;
21315;SDS011;10817;55.820;13.030;2023-05-17T02:53:09;18.33;;;3.75;;
21315;SDS011;10817;55.820;13.030;2023-05-17T02:55:37;15.00;;;3.58;;
21315;SDS011;10817;55.820;13.030;2023-05-17T02:58:04;24.00;;;3.63;;
21315;SDS011;10817;55.820;13.030;2023-05-17T03:00:32;17.02;;;3.65;;
21315;SDS011;10817;55.820;13.030;2023-05-17T03:03:00;18.02;;;3.45;;
21315;SDS011;10817;55.820;13.030;2023-05-17T03:05:28;25.20;;;3.90;;
21315;SDS011;10817;55.820;13.030;2023-05-17T03:07:56;20.58;;;3.28;;
21315;SDS011;10817;55.820;13.030;2023-05-17T03:10:24;21.35;;;3.55;;
21315;SDS011;10817;55.820;13.030;2023-05-17T03:12:51;22.10;;;3.83;;
21315;SDS011;10817;55.820;13.030;2023-05-17T03:15:21;22.88;;;3.03;;
21315;SDS011;10817;55.820;13.030;2023-05-17T03:17:50;19.20;;;3.35;;
21315;SDS011;10817;55.820;13.030;2023-05-17T03:20:18;14.45;;;3.58;;
21315;SDS011;10817;55.820;13.030;2023-05-17T03:22:47;16.92;;;3.28;;
21315;SDS011;10817;55.820;13.030;2023-05-17T03:25:16;22.20;;;3.00;;
21315;SDS011;10817;55.820;13.030;2023-05-17T03:27:43;20.58;;;3.80;;
21315;SDS011;10817;55.820;13.030;2023-05-17T03:30:10;18.27;;;3.20;;
21315;SDS011;10817;55.820;13.030;2023-05-17T03:32:38;16.67;;;3.33;;
21315;SDS011;10817;55.820;13.030;2023-05-17T03:35:06;15.27;;;3.00;;
21315;SDS011;10817;55.820;13.030;2023-05-17T03:37:34;18.92;;;2.80;;
21315;SDS011;10817;55.820;13.030;2023-05-17T03:40:01;19.58;;;3.40;;
21315;SDS011;10817;55.820;13.030;2023-05-17T03:42:30;22.83;;;3.13;;
21315;SDS011;10817;55.820;13.030;2023-05-17T03:44:57;11.18;;;2.50;;
21315;SDS011;10817;55.820;13.030;2023-05-17T03:47:25;14.55;;;3.30;;
21315;SDS011;10817;55.820;13.030;2023-05-17T03:49:52;23.42;;;3.25;;
21315;SDS011;10817;55.820;13.030;2023-05-17T03:52:20;17.05;;;2.92;;
21315;SDS011;10817;55.820;13.030;2023-05-17T03:54:47;16.63;;;2.90;;
21315;SDS011;10817;55.820;13.030;2023-05-17T03:57:15;13.98;;;2.60;;
21315;SDS011;10817;55.820;13.030;2023-05-17T03:59:45;22.50;;;2.70;;
21315;SDS011;10817;55.820;13.030;2023-05-17T04:02:14;10.57;;;2.90;;
21315;SDS011;10817;55.820;13.030;2023-05-17T04:04:41;16.65;;;3.70;;
21315;SDS011;10817;55.820;13.030;2023-05-17T04:07:17;13.85;;;2.97;;
21315;SDS011;10817;55.820;13.030;2023-05-17T04:09:45;14.98;;;2.95;;
21315;SDS011;10817;55.820;13.030;2023-05-17T04:12:12;13.10;;;2.58;;
21315;SDS011;10817;55.820;13.030;2023-05-17T04:14:40;18.63;;;2.80;;
21315;SDS011;10817;55.820;13.030;2023-05-17T04:17:09;17.85;;;3.10;;
21315;SDS011;10817;55.820;13.030;2023-05-17T04:19:36;14.38;;;2.97;;
21315;SDS011;10817;55.820;13.030;2023-05-17T04:22:04;13.57;;;4.05;;
21315;SDS011;10817;55.820;13.030;2023-05-17T04:24:31;14.30;;;2.40;;
21315;SDS011;10817;55.820;13.030;2023-05-17T04:26:58;22.10;;;3.20;;
21315;SDS011;10817;55.820;13.030;2023-05-17T04:29:28;20.80;;;3.05;;
21315;SDS011;10817;55.820;13.030;2023-05-17T04:31:57;19.10;;;2.55;;
21315;SDS011;10817;55.820;13.030;2023-05-17T04:34:26;10.38;;;2.33;;
21315;SDS011;10817;55.820;13.030;2023-05-17T04:36:56;10.10;;;2.50;;
21315;SDS011;10817;55.820;13.030;2023-05-17T04:39:25;11.60;;;2.45;;
21315;SDS011;10817;55.820;13.030;2023-05-17T04:41:52;15.27;;;2.33;;
21315;SDS011;10817;55.820;13.030;2023-05-17T04:44:20;11.65;;;2.45;;
21315;SDS011;10817;55.820;13.030;2023-05-17T04:46:47;20.17;;;3.13;;
21315;SDS011;10817;55.820;13.030;2023-05-17T04:49:15;14.20;;;2.78;;
21315;SDS011;10817;55.820;13.030;2023-05-17T04:51:44;13.55;;;2.58;;
21315;SDS011;10817;55.820;13.030;2023-05-17T04:54:12;11.57;;;2.83;;
21315;SDS011;10817;55.820;13.030;2023-05-17T04:56:39;12.13;;;2.35;;
21315;SDS011;10817;55.820;13.030;2023-05-17T04:59:12;17.15;;;2.00;;
21315;SDS011;10817;55.820;13.030;2023-05-17T05:01:40;11.60;;;2.20;;
21315;SDS011;10817;55.820;13.030;2023-05-17T05:04:08;18.17;;;2.30;;
21315;SDS011;10817;55.820;13.030;2023-05-17T05:06:40;9.88;;;1.88;;
21315;SDS011;10817;55.820;13.030;2023-05-17T05:09:08;13.40;;;2.15;;
21315;SDS011;10817;55.820;13.030;2023-05-17T05:11:37;13.60;;;2.30;;
21315;SDS011;10817;55.820;13.030;2023-05-17T05:14:05;12.30;;;2.13;;
21315;SDS011;10817;55.820;13.030;2023-05-17T05:16:32;25.45;;;2.35;;
21315;SDS011;10817;55.820;13.030;2023-05-17T05:19:00;16.83;;;2.50;;
21315;SDS011;10817;55.820;13.030;2023-05-17T05:21:29;12.60;;;2.28;;
21315;SDS011;10817;55.820;13.030;2023-05-17T05:23:56;15.27;;;2.00;;
21315;SDS011;10817;55.820;13.030;2023-05-17T05:26:26;7.55;;;2.10;;
21315;SDS011;10817;55.820;13.030;2023-05-17T05:28:55;8.55;;;1.90;;
21315;SDS011;10817;55.820;13.030;2023-05-17T05:31:23;10.77;;;2.25;;
21315;SDS011;10817;55.820;13.030;2023-05-17T05:33:55;11.90;;;2.20;;
21315;SDS011;10817;55.820;13.030;2023-05-17T05:36:24;7.75;;;1.80;;
21315;SDS011;10817;55.820;13.030;2023-05-17T05:38:52;10.40;;;1.60;;
21315;SDS011;10817;55.820;13.030;2023-05-17T05:41:20;6.55;;;1.60;;
21315;SDS011;10817;55.820;13.030;2023-05-17T05:43:48;15.18;;;2.08;;
21315;SDS011;10817;55.820;13.030;2023-05-17T05:46:16;7.50;;;2.22;;
21315;SDS011;10817;55.820;13.030;2023-05-17T05:48:43;8.77;;;2.00;;
21315;SDS011;10817;55.820;13.030;2023-05-17T05:51:11;11.15;;;2.00;;
21315;SDS011;10817;55.820;13.030;2023-05-17T05:53:40;11.43;;;2.00;;
21315;SDS011;10817;55.820;13.030;2023-05-17T05:56:08;12.70;;;1.70;;
21315;SDS011;10817;55.820;13.030;2023-05-17T05:58:37;12.05;;;1.88;;
21315;SDS011;10817;55.820;13.030;2023-05-17T06:01:06;12.38;;;2.15;;
21315;SDS011;10817;55.820;13.030;2023-05-17T06:03:33;13.07;;;1.67;;
21315;SDS011;10817;55.820;13.030;2023-05-17T06:06:00;9.32;;;1.77;;
21315;SDS011;10817;55.820;13.030;2023-05-17T06:08:27;9.25;;;1.48;;
21315;SDS011;10817;55.820;13.030;2023-05-17T06:10:54;12.30;;;2.05;;
21315;SDS011;10817;55.820;13.030;2023-05-17T06:13:21;13.00;;;1.50;;
21315;SDS011;10817;55.820;13.030;2023-05-17T06:15:49;6.93;;;1.48;;
21315;SDS011;10817;55.820;13.030;2023-05-17T06:18:17;7.03;;;2.10;;
21315;SDS011;10817;55.820;13.030;2023-05-17T06:20:44;7.15;;;1.70;;
21315;SDS011;10817;55.820;13.030;2023-05-17T06:23:12;11.07;;;2.05;;
21315;SDS011;10817;55.820;13.030;2023-05-17T06:25:39;8.73;;;1.60;;
21315;SDS011;10817;55.820;13.030;2023-05-17T06:28:06;6.90;;;1.42;;
21315;SDS011;10817;55.820;13.030;2023-05-17T06:30:35;4.75;;;1.45;;
21315;SDS011;10817;55.820;13.030;2023-05-17T06:33:02;5.47;;;1.45;;
21315;SDS011;10817;55.820;13.030;2023-05-17T06:35:31;9.95;;;1.50;;
21315;SDS011;10817;55.820;13.030;2023-05-17T06:37:58;3.67;;;1.20;;
21315;SDS011;10817;55.820;13.030;2023-05-17T06:40:25;9.32;;;1.60;;
21315;SDS011;10817;55.820;13.030;2023-05-17T06:42:52;7.72;;;1.80;;
21315;SDS011;10817;55.820;13.030;2023-05-17T06:45:20;9.82;;;2.22;;
21315;SDS011;10817;55.820;13.030;2023-05-17T06:47:47;8.85;;;2.00;;
21315;SDS011;10817;55.820;13.030;2023-05-17T06:50:14;10.30;;;1.75;;
21315;SDS011;10817;55.820;13.030;2023-05-17T06:52:43;11.68;;;1.67;;
21315;SDS011;10817;55.820;13.030;2023-05-17T06:55:10;12.48;;;1.42;;
21315;SDS011;10817;55.820;13.030;2023-05-17T06:57:37;9.23;;;1.90;;
21315;SDS011;10817;55.820;13.030;2023-05-17T07:00:05;7.97;;;1.60;;
21315;SDS011;10817;55.820;13.030;2023-05-17T07:02:34;10.87;;;1.80;;
21315;SDS011;10817;55.820;13.030;2023-05-17T07:05:03;10.25;;;1.70;;
21315;SDS011;10817;55.820;13.030;2023-05-17T07:07:31;10.30;;;2.17;;
21315;SDS011;10817;55.820;13.030;2023-05-17T07:09:59;11.32;;;1.80;;
21315;SDS011;10817;55.820;13.030;2023-05-17T07:12:26;8.65;;;1.77;;
21315;SDS011;10817;55.820;13.030;2023-05-17T07:14:53;6.45;;;1.52;;
21315;SDS011;10817;55.820;13.030;2023-05-17T07:17:21;6.20;;;1.80;;
21315;SDS011;10817;55.820;13.030;2023-05-17T07:19:48;7.97;;;1.42;;
21315;SDS011;10817;55.820;13.030;2023-05-17T07:22:16;6.10;;;1.58;;
21315;SDS011;10817;55.820;13.030;2023-05-17T07:24:43;8.05;;;1.92;;
21315;SDS011;10817;55.820;13.030;2023-05-17T07:27:11;11.35;;;2.05;;
21315;SDS011;10817;55.820;13.030;2023-05-17T07:29:38;8.38;;;1.67;;
21315;SDS011;10817;55.820;13.030;2023-05-17T07:32:07;4.75;;;1.58;;
21315;SDS011;10817;55.820;13.030;2023-05-17T07:34:34;9.30;;;1.90;;
21315;SDS011;10817;55.820;13.030;2023-05-17T07:37:01;5.85;;;1.52;;
21315;SDS011;10817;55.820;13.030;2023-05-17T07:39:29;8.70;;;1.80;;
21315;SDS011;10817;55.820;13.030;2023-05-17T07:41:56;6.25;;;1.70;;
21315;SDS011;10817;55.820;13.030;2023-05-17T07:44:25;9.02;;;1.88;;
21315;SDS011;10817;55.820;13.030;2023-05-17T07:46:52;6.95;;;1.67;;
21315;SDS011;10817;55.820;13.030;2023-05-17T07:49:21;5.75;;;1.40;;
21315;SDS011;10817;55.820;13.030;2023-05-17T07:51:49;6.70;;;1.95;;
21315;SDS011;10817;55.820;13.030;2023-05-17T07:54:23;6.80;;;1.40;;
21315;SDS011;10817;55.820;13.030;2023-05-17T07:56:51;7.10;;;1.70;;
21315;SDS011;10817;55.820;13.030;2023-05-17T07:59:19;7.90;;;1.48;;
21315;SDS011;10817;55.820;13.030;2023-05-17T08:01:48;9.13;;;2.22;;
21315;SDS011;10817;55.820;13.030;2023-05-17T08:04:15;5.93;;;1.38;;
21315;SDS011;10817;55.820;13.030;2023-05-17T08:06:43;10.57;;;1.70;;
21315;SDS011;10817;55.820;13.030;2023-05-17T08:09:12;4.38;;;1.33;;
21315;SDS011;10817;55.820;13.030;2023-05-17T08:11:39;7.57;;;1.40;;
21315;SDS011;10817;55.820;13.030;2023-05-17T08:14:10;11.98;;;1.67;;
21315;SDS011;10817;55.820;13.030;2023-05-17T08:16:38;7.57;;;1.35;;
21315;SDS011;10817;55.820;13.030;2023-05-17T08:19:09;4.25;;;1.48;;
21315;SDS011;10817;55.820;13.030;2023-05-17T08:21:37;4.63;;;1.45;;
21315;SDS011;10817;55.820;13.030;2023-05-17T08:24:05;7.65;;;1.60;;
21315;SDS011;10817;55.820;13.030;2023-05-17T08:26:33;7.72;;;1.65;;
21315;SDS011;10817;55.820;13.030;2023-05-17T08:29:00;6.22;;;1.38;;
21315;SDS011;10817;55.820;13.030;2023-05-17T08:31:28;4.85;;;1.27;;
21315;SDS011;10817;55.820;13.030;2023-05-17T08:33:56;2.35;;;1.15;;
21315;SDS011;10817;55.820;13.030;2023-05-17T08:36:24;5.80;;;1.60;;
21315;SDS011;10817;55.820;13.030;2023-05-17T08:38:52;5.05;;;1.52;;
21315;SDS011;10817;55.820;13.030;2023-05-17T08:41:19;7.55;;;1.42;;
21315;SDS011;10817;55.820;13.030;2023-05-17T08:43:47;8.57;;;1.60;;
21315;SDS011;10817;55.820;13.030;2023-05-17T08:46:15;3.17;;;1.23;;
21315;SDS011;10817;55.820;13.030;2023-05-17T08:48:45;3.58;;;1.23;;
21315;SDS011;10817;55.820;13.030;2023-05-17T08:51:16;8.65;;;1.58;;
21315;SDS011;10817;55.820;13.030;2023-05-17T08:53:44;7.22;;;1.67;;
21315;SDS011;10817;55.820;13.030;2023-05-17T08:56:12;4.20;;;1.75;;
21315;SDS011;10817;55.820;13.030;2023-05-17T08:58:42;7.60;;;1.80;;
21315;SDS011;10817;55.820;13.030;2023-05-17T09:01:10;7.07;;;1.20;;
21315;SDS011;10817;55.820;13.030;2023-05-17T09:03:38;5.70;;;1.42;;
21315;SDS011;10817;55.820;13.030;2023-05-17T09:06:07;6.25;;;1.02;;
21315;SDS011;10817;55.820;13.030;2023-05-17T09:08:35;4.82;;;1.60;;
21315;SDS011;10817;55.820;13.030;2023-05-17T09:11:04;4.00;;;1.05;;
21315;SDS011;10817;55.820;13.030;2023-05-17T09:13:33;6.28;;;1.58;;
21315;SDS011;10817;55.820;13.030;2023-05-17T09:16:00;4.75;;;1.20;;
21315;SDS011;10817;55.820;13.030;2023-05-17T09:18:28;5.13;;;1.30;;
21315;SDS011;10817;55.820;13.030;2023-05-17T09:20:56;3.10;;;1.10;;
21315;SDS011;10817;55.820;13.030;2023-05-17T09:23:28;4.70;;;1.48;;
21315;SDS011;10817;55.820;13.030;2023-05-17T09:26:03;4.65;;;1.15;;
21315;SDS011;10817;55.820;13.030;2023-05-17T09:28:35;5.60;;;1.27;;
21315;SDS011;10817;55.820;13.030;2023-05-17T09:31:04;8.48;;;1.45;;
21315;SDS011;10817;55.820;13.030;2023-05-17T09:33:32;8.60;;;1.57;;
21315;SDS011;10817;55.820;13.030;2023-05-17T09:35:59;7.03;;;1.20;;
21315;SDS011;10817;55.820;13.030;2023-05-17T09:38:27;3.65;;;0.98;;
21315;SDS011;10817;55.820;13.030;2023-05-17T09:40:55;1.70;;;0.85;;
21315;SDS011;10817;55.820;13.030;2023-05-17T09:43:24;4.35;;;1.35;;
21315;SDS011;10817;55.820;13.030;2023-05-17T09:45:54;4.28;;;1.15;;
21315;SDS011;10817;55.820;13.030;2023-05-17T09:48:23;5.57;;;1.17;;
21315;SDS011;10817;55.820;13.030;2023-05-17T09:50:51;7.18;;;1.50;;
21315;SDS011;10817;55.820;13.030;2023-05-17T09:53:21;7.75;;;1.00;;
21315;SDS011;10817;55.820;13.030;2023-05-17T09:55:50;5.13;;;0.98;;
21315;SDS011;10817;55.820;13.030;2023-05-17T09:58:17;6.80;;;1.15;;
21315;SDS011;10817;55.820;13.030;2023-05-17T10:00:46;5.72;;;1.00;;
21315;SDS011;10817;55.820;13.030;2023-05-17T10:03:17;4.93;;;1.00;;
21315;SDS011;10817;55.820;13.030;2023-05-17T10:05:44;4.55;;;1.15;;
21315;SDS011;10817;55.820;13.030;2023-05-17T10:08:12;6.30;;;1.00;;
21315;SDS011;10817;55.820;13.030;2023-05-17T10:10:40;5.78;;;1.10;;
21315;SDS011;10817;55.820;13.030;2023-05-17T10:13:08;4.67;;;1.00;;
21315;SDS011;10817;55.820;13.030;2023-05-17T10:15:37;5.88;;;1.20;;
21315;SDS011;10817;55.820;13.030;2023-05-17T10:18:06;2.35;;;0.80;;
21315;SDS011;10817;55.820;13.030;2023-05-17T10:20:33;9.13;;;1.20;;
21315;SDS011;10817;55.820;13.030;2023-05-17T10:23:01;5.88;;;1.00;;
21315;SDS011;10817;55.820;13.030;2023-05-17T10:25:30;6.07;;;1.17;;
21315;SDS011;10817;55.820;13.030;2023-05-17T10:27:57;7.50;;;1.50;;
21315;SDS011;10817;55.820;13.030;2023-05-17T10:30:25;6.45;;;0.90;;
21315;SDS011;10817;55.820;13.030;2023-05-17T10:32:54;6.47;;;1.10;;
21315;SDS011;10817;55.820;13.030;2023-05-17T10:35:23;8.35;;;1.10;;
21315;SDS011;10817;55.820;13.030;2023-05-17T10:37:51;3.97;;;1.00;;
21315;SDS011;10817;55.820;13.030;2023-05-17T10:40:18;4.35;;;1.10;;
21315;SDS011;10817;55.820;13.030;2023-05-17T10:42:46;7.10;;;1.10;;
21315;SDS011;10817;55.820;13.030;2023-05-17T10:45:15;3.75;;;0.95;;
21315;SDS011;10817;55.820;13.030;2023-05-17T10:47:46;7.43;;;1.23;;
21315;SDS011;10817;55.820;13.030;2023-05-17T10:50:14;6.78;;;1.63;;
21315;SDS011;10817;55.820;13.030;2023-05-17T10:52:49;4.47;;;1.02;;
21315;SDS011;10817;55.820;13.030;2023-05-17T10:55:19;4.93;;;1.17;;
21315;SDS011;10817;55.820;13.030;2023-05-17T10:58:07;4.75;;;1.05;;
21315;SDS011;10817;55.820;13.030;2023-05-17T11:00:37;2.88;;;0.80;;
21315;SDS011;10817;55.820;13.030;2023-05-17T11:03:12;5.78;;;1.20;;
21315;SDS011;10817;55.820;13.030;2023-05-17T11:05:41;6.00;;;1.03;;
21315;SDS011;10817;55.820;13.030;2023-05-17T11:08:14;5.95;;;1.00;;
21315;SDS011;10817;55.820;13.030;2023-05-17T11:13:28;7.88;;;1.00;;
21315;SDS011;10817;55.820;13.030;2023-05-17T11:16:02;5.75;;;1.70;;
21315;SDS011;10817;55.820;13.030;2023-05-17T11:18:44;6.13;;;1.48;;
21315;SDS011;10817;55.820;13.030;2023-05-17T11:21:12;5.07;;;1.00;;
21315;SDS011;10817;55.820;13.030;2023-05-17T11:23:42;6.03;;;1.20;;
21315;SDS011;10817;55.820;13.030;2023-05-17T11:26:16;7.28;;;0.95;;
21315;SDS011;10817;55.820;13.030;2023-05-17T11:28:43;5.15;;;1.10;;
21315;SDS011;10817;55.820;13.030;2023-05-17T11:31:10;6.18;;;1.25;;
21315;SDS011;10817;55.820;13.030;2023-05-17T11:33:40;10.13;;;1.10;;
21315;SDS011;10817;55.820;13.030;2023-05-17T11:36:13;4.43;;;1.05;;
21315;SDS011;10817;55.820;13.030;2023-05-17T11:38:42;4.85;;;0.90;;
21315;SDS011;10817;55.820;13.030;2023-05-17T11:41:16;4.10;;;1.10;;
21315;SDS011;10817;55.820;13.030;2023-05-17T11:43:46;5.37;;;1.00;;
21315;SDS011;10817;55.820;13.030;2023-05-17T11:46:18;5.07;;;1.23;;
21315;SDS011;10817;55.820;13.030;2023-05-17T11:48:45;6.60;;;1.00;;
21315;SDS011;10817;55.820;13.030;2023-05-17T11:51:14;4.57;;;1.00;;
21315;SDS011;10817;55.820;13.030;2023-05-17T11:53:42;5.78;;;1.00;;
21315;SDS011;10817;55.820;13.030;2023-05-17T11:56:11;4.82;;;0.90;;
21315;SDS011;10817;55.820;13.030;2023-05-17T11:58:39;5.63;;;1.10;;
21315;SDS011;10817;55.820;13.030;2023-05-17T12:01:07;3.40;;;0.85;;
21315;SDS011;10817;55.820;13.030;2023-05-17T12:03:35;4.22;;;0.90;;
21315;SDS011;10817;55.820;13.030;2023-05-17T12:06:03;5.50;;;1.30;;
21315;SDS011;10817;55.820;13.030;2023-05-17T12:08:31;6.63;;;0.98;;
21315;SDS011;10817;55.820;13.030;2023-05-17T12:11:00;4.10;;;1.00;;
21315;SDS011;10817;55.820;13.030;2023-05-17T12:13:27;5.07;;;0.90;;
21315;SDS011;10817;55.820;13.030;2023-05-17T12:15:56;8.20;;;1.10;;
21315;SDS011;10817;55.820;13.030;2023-05-17T12:18:25;2.97;;;0.83;;
21315;SDS011;10817;55.820;13.030;2023-05-17T12:21:01;6.65;;;1.00;;
21315;SDS011;10817;55.820;13.030;2023-05-17T12:23:28;5.03;;;0.93;;
21315;SDS011;10817;55.820;13.030;2023-05-17T12:26:20;3.80;;;1.00;;
21315;SDS011;10817;55.820;13.030;2023-05-17T12:28:52;4.32;;;0.93;;
21315;SDS011;10817;55.820;13.030;2023-05-17T12:31:20;6.10;;;1.00;;
21315;SDS011;10817;55.820;13.030;2023-05-17T12:33:48;4.35;;;0.90;;
21315;SDS011;10817;55.820;13.030;2023-05-17T12:36:15;4.80;;;1.00;;
21315;SDS011;10817;55.820;13.030;2023-05-17T12:38:43;4.33;;;0.87;;
21315;SDS011;10817;55.820;13.030;2023-05-17T12:41:13;4.88;;;0.80;;
21315;SDS011;10817;55.820;13.030;2023-05-17T12:43:42;4.32;;;0.93;;
21315;SDS011;10817;55.820;13.030;2023-05-17T12:46:10;6.20;;;0.95;;
21315;SDS011;10817;55.820;13.030;2023-05-17T12:48:38;5.47;;;0.87;;
21315;SDS011;10817;55.820;13.030;2023-05-17T12:51:06;4.43;;;0.77;;
21315;SDS011;10817;55.820;13.030;2023-05-17T12:53:34;6.45;;;0.77;;
21315;SDS011;10817;55.820;13.030;2023-05-17T12:56:03;2.03;;;0.60;;
21315;SDS011;10817;55.820;13.030;2023-05-17T12:58:32;4.70;;;0.75;;
21315;SDS011;10817;55.820;13.030;2023-05-17T13:01:00;7.60;;;0.77;;
21315;SDS011;10817;55.820;13.030;2023-05-17T13:03:27;3.60;;;0.73;;
21315;SDS011;10817;55.820;13.030;2023-05-17T13:05:58;3.03;;;0.77;;
21315;SDS011;10817;55.820;13.030;2023-05-17T13:08:26;1.35;;;0.70;;
21315;SDS011;10817;55.820;13.030;2023-05-17T13:11:03;5.60;;;0.83;;
21315;SDS011;10817;55.820;13.030;2023-05-17T13:13:32;1.77;;;0.70;;
21315;SDS011;10817;55.820;13.030;2023-05-17T13:16:00;4.53;;;0.93;;
21315;SDS011;10817;55.820;13.030;2023-05-17T13:18:27;7.32;;;0.80;;
21315;SDS011;10817;55.820;13.030;2023-05-17T13:20:55;4.50;;;0.88;;
21315;SDS011;10817;55.820;13.030;2023-05-17T13:23:22;4.22;;;0.90;;
21315;SDS011;10817;55.820;13.030;2023-05-17T13:25:49;4.15;;;0.60;;
21315;SDS011;10817;55.820;13.030;2023-05-17T13:28:18;4.57;;;0.82;;
21315;SDS011;10817;55.820;13.030;2023-05-17T13:30:46;3.92;;;0.77;;
21315;SDS011;10817;55.820;13.030;2023-05-17T13:33:16;7.38;;;1.00;;
21315;SDS011;10817;55.820;13.030;2023-05-17T13:35:43;4.20;;;0.70;;
21315;SDS011;10817;55.820;13.030;2023-05-17T13:38:11;4.38;;;0.93;;
21315;SDS011;10817;55.820;13.030;2023-05-17T13:40:38;2.20;;;0.63;;
21315;SDS011;10817;55.820;13.030;2023-05-17T13:43:05;3.78;;;0.70;;
21315;SDS011;10817;55.820;13.030;2023-05-17T13:45:33;2.90;;;0.60;;
21315;SDS011;10817;55.820;13.030;2023-05-17T13:48:02;3.28;;;0.80;;
21315;SDS011;10817;55.820;13.030;2023-05-17T13:50:30;3.60;;;0.82;;
21315;SDS011;10817;55.820;13.030;2023-05-17T13:52:57;3.73;;;0.80;;
21315;SDS011;10817;55.820;13.030;2023-05-17T13:55:25;3.30;;;0.50;;
21315;SDS011;10817;55.820;13.030;2023-05-17T13:57:53;3.70;;;0.60;;
21315;SDS011;10817;55.820;13.030;2023-05-17T14:00:20;4.80;;;0.97;;
21315;SDS011;10817;55.820;13.030;2023-05-17T14:02:48;7.60;;;0.90;;
21315;SDS011;10817;55.820;13.030;2023-05-17T14:05:16;3.65;;;0.80;;
21315;SDS011;10817;55.820;13.030;2023-05-17T14:07:44;3.13;;;0.85;;
21315;SDS011;10817;55.820;13.030;2023-05-17T14:10:12;3.38;;;0.73;;
21315;SDS011;10817;55.820;13.030;2023-05-17T14:12:39;2.75;;;0.80;;
21315;SDS011;10817;55.820;13.030;2023-05-17T14:15:07;6.38;;;1.02;;
21315;SDS011;10817;55.820;13.030;2023-05-17T14:17:34;4.22;;;0.82;;
21315;SDS011;10817;55.820;13.030;2023-05-17T14:20:02;4.07;;;0.80;;
21315;SDS011;10817;55.820;13.030;2023-05-17T14:22:31;4.00;;;0.90;;
21315;SDS011;10817;55.820;13.030;2023-05-17T14:24:58;2.90;;;0.80;;
21315;SDS011;10817;55.820;13.030;2023-05-17T14:27:25;4.35;;;0.50;;
21315;SDS011;10817;55.820;13.030;2023-05-17T14:29:53;3.60;;;0.63;;
21315;SDS011;10817;55.820;13.030;2023-05-17T14:32:20;2.10;;;0.60;;
21315;SDS011;10817;55.820;13.030;2023-05-17T14:34:47;2.92;;;0.63;;
21315;SDS011;10817;55.820;13.030;2023-05-17T14:37:14;1.73;;;0.70;;
21315;SDS011;10817;55.820;13.030;2023-05-17T14:39:43;4.82;;;0.75;;